首页
METAR-TAF:

METAR-TAF

机场 :

Qurayyat, 沙特阿拉伯

纬度: 31-24N, 经度: 037-16E, 海拔: 509米

当前天气观测

该预报发布于41分钟前的01:00 UTC
静风
温度 18°C
湿度 45%
气压 1013 hPa
能见度10公里或以上
1500米以下无云,无积雨云

METAR: OEGT 170100Z 00000KT CAVOK 18/06 Q1013 NOSIG

时间: 04:41 (01:41 UTC)

预报

该预报发布于2小时和41分钟前的23:00 UTC
预报有效从17日的 00点(UTC)到 18日的 06点(UTC)
风速3节,风向多变
能见度10公里或以上
1500米以下无云,无积雨云
成为
从 17日的 06点(UTC)到 17日的 08点(UTC)
风速6节,风向东转东南
成为
从 17日的 18点(UTC)到 17日的 20点(UTC)
风速3节,风向多变

TAF: OEGT 162300Z 1700/1806 VRB03KT CAVOK BECMG 1706/1708 12006KT BECMG 1718/1720 VRB03KT

超过4000个机场的气象观测和天气预报(METAR&TAF报告)。

可查询的气象台以黄色和红色小点在地图上表示。

将鼠标移到小点上方,可查看气象台名称。

然后点击查看天气观测和预报。

如需切换地图:点击带黑十字的绿色按钮放大地图;点击带横线的绿色按钮缩小地图;或者点击绿色箭头查看邻近地区的地图。


METAR-TAF: